createdAt,value
2018-12-25T00:01:22.073Z,67.45
2018-12-25T00:03:52.339Z,67.53
2018-12-25T00:09:25.452Z,67.24
2018-12-25T00:12:14.308Z,67.23
2018-12-25T00:14:44.407Z,67.29
2018-12-25T00:19:56.894Z,67.20
2018-12-25T00:22:46.899Z,67.31
2018-12-25T00:25:38.018Z,67.14
2018-12-25T00:31:14.523Z,66.83
2018-12-25T00:33:44.082Z,66.95
2018-12-25T00:36:13.877Z,67.31
2018-12-25T00:38:43.712Z,66.93
2018-12-25T00:41:25.547Z,66.65
2018-12-25T00:43:55.185Z,66.59
2018-12-25T00:46:24.991Z,66.34
2018-12-25T00:48:54.878Z,66.28
2018-12-25T00:51:43.915Z,66.29
2018-12-25T00:54:13.732Z,66.01
2018-12-25T00:56:43.322Z,66.42
2018-12-25T00:59:13.500Z,66.09
2018-12-25T01:01:43.408Z,66.01
2018-12-25T01:04:12.950Z,65.70
2018-12-25T01:06:43.218Z,65.93
2018-12-25T01:09:12.706Z,66.28
2018-12-25T01:11:42.230Z,66.03
2018-12-25T01:14:11.759Z,65.69
2018-12-25T01:17:00.776Z,65.62
2018-12-25T01:19:30.313Z,65.55
2018-12-25T01:21:59.898Z,65.63
2018-12-25T01:24:29.415Z,65.48
2018-12-25T01:26:59.863Z,65.30
2018-12-25T01:29:29.380Z,65.45
2018-12-25T01:31:58.939Z,65.39
2018-12-25T01:34:29.121Z,65.21
2018-12-25T01:39:58.808Z,64.89
2018-12-25T01:42:48.673Z,64.91
2018-12-25T01:45:18.594Z,64.68
2018-12-25T01:47:48.444Z,64.50
2018-12-25T01:50:18.660Z,64.96
2018-12-25T01:52:48.680Z,64.70
2018-12-25T01:55:18.236Z,64.83
2018-12-25T01:57:47.924Z,64.66
2018-12-25T02:00:17.499Z,64.90
2018-12-25T02:02:48.013Z,64.75
2018-12-25T02:05:36.876Z,65.28
2018-12-25T02:08:06.454Z,64.85
2018-12-25T02:13:43.860Z,64.70
2018-12-25T02:16:14.024Z,64.99
2018-12-25T02:18:43.836Z,65.27
2018-12-25T02:24:26.085Z,65.77
2018-12-25T02:26:55.599Z,65.43
2018-12-25T02:29:44.895Z,65.38
2018-12-25T02:35:04.560Z,65.50
2018-12-25T02:37:34.367Z,65.48
2018-12-25T02:40:04.222Z,65.54
2018-12-25T02:42:33.970Z,65.31
2018-12-25T02:48:05.542Z,65.52
2018-12-25T02:53:23.907Z,65.61
2018-12-25T02:55:53.673Z,66.04
2018-12-25T02:58:23.835Z,65.81
2018-12-25T03:00:53.782Z,65.78
2018-12-25T03:03:23.556Z,65.58
2018-12-25T03:05:53.055Z,65.61
2018-12-25T03:11:17.536Z,65.69
2018-12-25T03:13:47.403Z,65.73
2018-12-25T03:16:17.167Z,65.74
2018-12-25T03:18:46.931Z,65.81
2018-12-25T03:21:16.835Z,65.81
2018-12-25T03:24:05.622Z,65.70
2018-12-25T03:26:53.467Z,65.49
2018-12-25T03:29:23.242Z,65.63
2018-12-25T03:31:52.740Z,65.37
2018-12-25T03:37:03.699Z,65.59
2018-12-25T03:39:33.286Z,65.30
2018-12-25T03:45:04.852Z,65.29
2018-12-25T03:47:34.624Z,64.95
2018-12-25T03:50:27.542Z,65.17
2018-12-25T03:52:57.114Z,64.92
2018-12-25T03:55:26.896Z,64.94
2018-12-25T03:57:56.383Z,64.82
2018-12-25T04:00:26.012Z,65.17
2018-12-25T04:02:57.659Z,65.12
2018-12-25T04:05:46.456Z,65.70
2018-12-25T04:08:16.056Z,65.37
2018-12-25T04:10:45.821Z,65.25
2018-12-25T04:16:04.411Z,65.32
2018-12-25T04:18:55.856Z,65.72
2018-12-25T04:21:44.956Z,65.73
2018-12-25T04:24:15.026Z,65.85
2018-12-25T04:26:45.306Z,65.78
2018-12-25T04:29:15.583Z,65.91
2018-12-25T04:31:45.128Z,65.68
2018-12-25T04:34:15.055Z,66.17
2018-12-25T04:36:44.896Z,65.60
2018-12-25T04:39:33.419Z,65.66
2018-12-25T04:42:03.463Z,64.87
2018-12-25T04:44:33.197Z,64.74
2018-12-25T04:47:22.151Z,64.52
2018-12-25T04:50:34.715Z,64.36
2018-12-25T04:53:04.262Z,64.16
2018-12-25T04:55:33.996Z,64.16
2018-12-25T05:00:59.695Z,63.78
2018-12-25T05:03:29.229Z,63.87
2018-12-25T05:09:10.879Z,64.01
2018-12-25T05:11:41.472Z,63.79
2018-12-25T05:14:11.283Z,64.00
2018-12-25T05:16:40.875Z,63.88
2018-12-25T05:21:52.781Z,63.68
2018-12-25T05:27:30.994Z,63.88
2018-12-25T05:30:01.032Z,63.68
2018-12-25T05:32:31.379Z,64.02
2018-12-25T05:35:00.864Z,63.99
2018-12-25T05:37:30.680Z,63.63
2018-12-25T05:40:00.603Z,64.00
2018-12-25T05:42:49.398Z,63.92
2018-12-25T05:48:19.387Z,64.15
2018-12-25T05:51:01.067Z,64.13
2018-12-25T05:53:30.962Z,63.89
2018-12-25T05:56:01.093Z,64.07
2018-12-25T05:58:30.831Z,64.34
2018-12-25T06:01:00.362Z,64.18
2018-12-25T06:03:49.731Z,64.05
2018-12-25T06:06:19.625Z,64.02
2018-12-25T06:09:09.230Z,63.97
2018-12-25T06:11:57.954Z,64.17
2018-12-25T06:14:27.953Z,64.39
2018-12-25T06:16:57.683Z,64.17
2018-12-25T06:19:27.487Z,64.47
2018-12-25T06:21:57.613Z,64.22
2018-12-25T06:24:28.237Z,64.75
2018-12-25T06:35:13.922Z,64.66
2018-12-25T06:37:43.946Z,64.67
2018-12-25T06:40:13.696Z,64.59
2018-12-25T06:42:43.478Z,64.63
2018-12-25T06:45:32.606Z,64.78
2018-12-25T06:48:02.596Z,64.68
2018-12-25T06:53:27.491Z,64.77
2018-12-25T06:55:57.099Z,65.22
2018-12-25T06:58:26.930Z,65.08
2018-12-25T07:00:56.432Z,65.47
2018-12-25T07:06:06.961Z,65.23
2018-12-25T07:08:36.445Z,65.41
2018-12-25T07:11:25.561Z,65.15
2018-12-25T07:13:55.129Z,64.90
2018-12-25T07:16:24.905Z,65.23
2018-12-25T07:18:54.716Z,65.33
2018-12-25T07:21:24.264Z,65.43
2018-12-25T07:23:53.931Z,65.43
2018-12-25T07:29:18.633Z,65.68
2018-12-25T07:31:48.378Z,65.43
2018-12-25T07:34:18.116Z,64.89
2018-12-25T07:39:42.379Z,65.25
2018-12-25T07:42:12.206Z,65.68
2018-12-25T07:44:41.999Z,65.39
2018-12-25T07:49:52.483Z,65.30
2018-12-25T07:55:04.083Z,65.15
2018-12-25T07:57:33.883Z,65.07
2018-12-25T08:00:03.418Z,65.27
2018-12-25T08:05:22.650Z,64.99
2018-12-25T08:08:04.599Z,65.26
2018-12-25T08:10:34.791Z,65.26
2018-12-25T08:13:04.288Z,64.84
2018-12-25T08:15:52.954Z,65.07
2018-12-25T08:23:52.069Z,64.98
2018-12-25T08:26:22.506Z,64.95
2018-12-25T08:28:52.744Z,64.96
2018-12-25T08:31:22.270Z,64.99
2018-12-25T08:34:11.660Z,65.65
2018-12-25T08:36:41.177Z,65.32
2018-12-25T08:39:11.343Z,65.54
2018-12-25T08:41:41.545Z,65.80
2018-12-25T08:44:11.577Z,65.88
2018-12-25T08:47:02.511Z,66.47
2018-12-25T08:49:37.814Z,66.63
2018-12-25T08:52:27.317Z,66.64
2018-12-25T08:54:56.942Z,66.54
2018-12-25T08:57:27.026Z,67.15
2018-12-25T08:59:56.593Z,67.03
2018-12-25T09:02:26.117Z,67.69
2018-12-25T09:04:56.623Z,67.53
2018-12-25T09:07:26.145Z,67.63
2018-12-25T09:09:56.186Z,68.02
2018-12-25T09:12:31.350Z,68.24
2018-12-25T09:15:00.906Z,68.14
2018-12-25T09:17:30.660Z,68.27
2018-12-25T09:20:00.971Z,68.47
2018-12-25T09:22:30.827Z,69.22
2018-12-25T09:25:00.393Z,67.60
2018-12-25T09:27:49.505Z,68.09
2018-12-25T09:30:19.011Z,67.78
2018-12-25T09:32:48.638Z,67.66
2018-12-25T09:35:18.568Z,67.83
2018-12-25T09:38:07.270Z,67.74
2018-12-25T09:40:36.769Z,67.89
2018-12-25T09:43:25.655Z,67.61
2018-12-25T09:45:55.226Z,67.24
2018-12-25T09:48:25.024Z,67.21
2018-12-25T09:50:55.156Z,66.71
2018-12-25T09:53:25.263Z,66.68
2018-12-25T09:56:18.148Z,66.48
2018-12-25T09:58:48.505Z,67.05
2018-12-25T10:01:18.003Z,66.92
2018-12-25T10:03:48.208Z,66.84
2018-12-25T10:06:17.742Z,66.24
2018-12-25T10:08:47.526Z,66.69
2018-12-25T10:11:17.328Z,65.98
2018-12-25T10:16:53.606Z,65.41
2018-12-25T10:19:23.166Z,66.11
2018-12-25T10:22:12.286Z,64.96
2018-12-25T10:30:25.476Z,64.04
2018-12-25T10:33:14.522Z,63.79
2018-12-25T10:35:44.703Z,63.84
2018-12-25T10:38:20.317Z,63.44
2018-12-25T10:40:50.364Z,64.05
2018-12-25T10:46:01.652Z,63.67
2018-12-25T10:48:31.411Z,63.81
2018-12-25T10:51:20.476Z,63.28
2018-12-25T10:53:50.599Z,62.93
2018-12-25T10:56:20.161Z,62.79
2018-12-25T10:58:49.714Z,62.72
2018-12-25T11:01:23.371Z,62.70
2018-12-25T11:03:53.254Z,62.74
2018-12-25T11:06:53.495Z,62.64
2018-12-25T11:09:42.285Z,62.58
2018-12-25T11:12:12.225Z,62.40
2018-12-25T11:14:41.737Z,62.07
2018-12-25T11:17:11.316Z,61.86
2018-12-25T11:19:41.197Z,61.97
2018-12-25T11:22:10.775Z,61.74
2018-12-25T11:24:40.743Z,62.50
2018-12-25T11:30:05.259Z,61.91
2018-12-25T11:32:35.015Z,61.56
2018-12-25T11:40:48.500Z,61.39
2018-12-25T11:43:18.135Z,61.98
2018-12-25T11:45:47.939Z,62.48
2018-12-25T11:48:18.005Z,61.11
2018-12-25T11:53:56.071Z,60.96
2018-12-25T11:56:26.376Z,60.99
2018-12-25T11:58:56.234Z,61.28
2018-12-25T12:01:25.858Z,60.80
2018-12-25T12:03:55.358Z,60.97
2018-12-25T12:06:25.445Z,61.29
2018-12-25T12:08:55.042Z,61.44
2018-12-25T12:11:25.328Z,61.39
2018-12-25T12:14:14.208Z,61.24
2018-12-25T12:16:43.764Z,60.97
2018-12-25T12:19:13.324Z,60.65
2018-12-25T12:21:42.864Z,60.98
2018-12-25T12:24:31.912Z,60.82
2018-12-25T12:27:01.955Z,61.20
2018-12-25T12:29:31.547Z,60.54
2018-12-25T12:32:01.300Z,60.37
2018-12-25T12:40:14.805Z,59.90
2018-12-25T12:42:44.836Z,60.02
2018-12-25T12:45:14.594Z,60.04
2018-12-25T12:47:44.595Z,59.99
2018-12-25T12:50:14.338Z,59.92
2018-12-25T12:52:45.700Z,59.74
2018-12-25T12:55:20.204Z,59.42
2018-12-25T12:57:49.982Z,59.66
2018-12-25T13:00:19.834Z,59.53
2018-12-25T13:08:29.901Z,59.83
2018-12-25T13:10:59.532Z,59.59
2018-12-25T13:13:29.284Z,59.09
2018-12-25T13:15:59.239Z,59.05
2018-12-25T13:18:29.272Z,59.30
2018-12-25T13:20:58.830Z,59.05
2018-12-25T13:23:28.659Z,58.96
2018-12-25T13:26:10.799Z,59.15
2018-12-25T13:28:40.673Z,59.33
2018-12-25T13:34:02.654Z,59.14
2018-12-25T13:36:32.503Z,59.00
2018-12-25T13:39:02.521Z,58.95
2018-12-25T13:41:32.584Z,58.96
2018-12-25T13:44:02.274Z,58.66
2018-12-25T13:49:14.086Z,59.03
2018-12-25T13:51:43.952Z,58.82
2018-12-25T13:54:14.153Z,58.75
2018-12-25T13:56:43.697Z,58.74
2018-12-25T13:59:32.291Z,58.90
2018-12-25T14:02:01.853Z,59.13
2018-12-25T14:04:31.703Z,58.71
2018-12-25T14:07:01.637Z,58.58
2018-12-25T14:12:40.880Z,58.67
2018-12-25T14:15:29.648Z,58.78
2018-12-25T14:17:59.205Z,58.72
2018-12-25T14:26:12.846Z,58.39
2018-12-25T14:28:42.644Z,58.24
2018-12-25T14:31:12.152Z,57.92
2018-12-25T14:36:36.127Z,58.04
2018-12-25T14:39:07.550Z,57.77
2018-12-25T14:41:37.348Z,57.88
2018-12-25T14:44:08.289Z,57.83
2018-12-25T14:46:38.043Z,57.90
2018-12-25T14:51:49.241Z,58.09
2018-12-25T14:54:38.361Z,58.12
2018-12-25T14:57:07.844Z,58.32
2018-12-25T14:59:37.718Z,58.08
2018-12-25T15:02:07.307Z,58.45
2018-12-25T15:12:54.872Z,57.43
2018-12-25T15:15:24.727Z,57.71
2018-12-25T15:21:19.645Z,58.07
2018-12-25T15:23:49.207Z,57.91
2018-12-25T15:26:18.958Z,58.26
2018-12-25T15:29:33.913Z,58.39
2018-12-25T15:32:03.452Z,58.65
2018-12-25T15:34:33.554Z,58.86
2018-12-25T15:37:03.367Z,59.08
2018-12-25T15:39:33.279Z,58.99
2018-12-25T15:42:22.063Z,59.01
2018-12-25T15:44:52.151Z,59.19
2018-12-25T15:47:21.757Z,59.36
2018-12-25T15:52:33.187Z,59.52
2018-12-25T15:55:03.065Z,59.84
2018-12-25T15:57:33.352Z,59.95
2018-12-25T16:00:03.029Z,60.25
2018-12-25T16:02:33.771Z,60.14
2018-12-25T16:05:03.835Z,60.17
2018-12-25T16:07:33.465Z,60.07
2018-12-25T16:10:03.951Z,60.23
2018-12-25T16:12:33.808Z,60.17
2018-12-25T16:15:03.688Z,60.35
2018-12-25T16:17:33.746Z,60.27
2018-12-25T16:20:03.844Z,60.28
2018-12-25T16:22:33.683Z,60.48
2018-12-25T16:25:03.377Z,60.26
2018-12-25T16:27:33.148Z,59.96
2018-12-25T16:30:02.730Z,60.18
2018-12-25T16:32:33.049Z,60.18
2018-12-25T16:35:02.918Z,60.04
2018-12-25T16:37:32.942Z,60.33
2018-12-25T16:40:02.814Z,59.96
2018-12-25T16:42:32.315Z,60.14
2018-12-25T16:45:02.111Z,60.24
2018-12-25T16:47:31.813Z,60.47
2018-12-25T16:50:01.646Z,60.42
2018-12-25T16:52:31.216Z,60.32
2018-12-25T16:55:01.117Z,60.43
2018-12-25T16:57:30.732Z,60.39
2018-12-25T17:00:00.332Z,60.55
2018-12-25T17:02:30.139Z,60.36
2018-12-25T17:04:59.911Z,60.35
2018-12-25T17:07:29.938Z,60.05
2018-12-25T17:09:59.988Z,60.33
2018-12-25T17:12:29.809Z,60.14
2018-12-25T17:14:59.287Z,60.17
2018-12-25T17:17:29.221Z,60.56
2018-12-25T17:19:58.746Z,60.35
2018-12-25T17:22:28.270Z,60.16
2018-12-25T17:24:59.665Z,60.10
2018-12-25T17:27:29.562Z,60.20
2018-12-25T17:29:59.428Z,60.00
2018-12-25T17:32:28.957Z,60.01
2018-12-25T17:34:58.724Z,60.03
2018-12-25T17:37:29.575Z,60.35
2018-12-25T17:39:59.118Z,60.10
2018-12-25T17:42:28.666Z,60.42
2018-12-25T17:44:58.463Z,60.19
2018-12-25T17:47:29.319Z,60.11
2018-12-25T17:49:59.040Z,60.18
2018-12-25T17:52:29.623Z,59.94
2018-12-25T17:54:59.111Z,60.12
2018-12-25T17:57:28.904Z,60.02
2018-12-25T17:59:58.437Z,60.17
2018-12-25T18:02:27.927Z,60.28
2018-12-25T18:04:57.879Z,60.02
2018-12-25T18:07:28.164Z,60.32
2018-12-25T18:09:57.669Z,60.15
2018-12-25T18:12:27.303Z,60.05
2018-12-25T18:14:57.058Z,60.03
2018-12-25T18:17:26.604Z,60.42
2018-12-25T18:19:56.634Z,60.71
2018-12-25T18:22:26.595Z,60.67
2018-12-25T18:24:56.327Z,60.76
2018-12-25T18:27:26.147Z,60.96
2018-12-25T18:29:55.897Z,61.54
2018-12-25T18:32:25.415Z,61.43
2018-12-25T18:34:54.886Z,61.60
2018-12-25T18:37:25.384Z,61.86
2018-12-25T18:39:56.502Z,61.84
2018-12-25T18:42:26.649Z,62.14
2018-12-25T18:44:56.740Z,61.91
2018-12-25T18:47:27.525Z,61.84
2018-12-25T18:49:57.067Z,62.08
2018-12-25T18:52:27.231Z,62.05
2018-12-25T18:54:56.754Z,62.26
2018-12-25T18:57:26.323Z,62.86
2018-12-25T18:59:55.863Z,62.09
2018-12-25T19:02:25.741Z,62.01
2018-12-25T19:04:55.467Z,61.72
2018-12-25T19:07:26.260Z,61.92
2018-12-25T19:09:55.839Z,61.87
2018-12-25T19:12:25.569Z,61.54
2018-12-25T19:15:22.171Z,61.87
2018-12-25T19:17:53.621Z,62.12
2018-12-25T19:20:23.611Z,61.90
2018-12-25T19:22:53.179Z,61.96
2018-12-25T19:25:23.265Z,61.56
2018-12-25T19:27:53.029Z,61.94
2018-12-25T19:30:24.153Z,61.54
2018-12-25T19:32:53.924Z,61.54
2018-12-25T19:35:23.862Z,61.47
2018-12-25T19:37:53.657Z,61.72
2018-12-25T19:40:24.284Z,61.57
2018-12-25T19:42:53.905Z,61.51
2018-12-25T19:45:23.815Z,60.67
2018-12-25T19:47:53.678Z,60.46
2018-12-25T19:50:24.436Z,60.15
2018-12-25T19:52:55.704Z,59.84
2018-12-25T19:55:25.637Z,59.82
2018-12-25T19:57:55.461Z,59.88
2018-12-25T20:00:26.154Z,59.86
2018-12-25T20:03:08.313Z,59.82
2018-12-25T20:06:02.954Z,59.85
2018-12-25T20:09:19.746Z,59.64
2018-12-25T20:12:30.586Z,59.58
2018-12-25T20:15:18.055Z,59.60
2018-12-25T20:18:28.181Z,60.01
2018-12-25T20:21:19.701Z,59.67
2018-12-25T20:24:26.760Z,59.42
2018-12-25T20:27:34.229Z,59.44
2018-12-25T20:30:43.403Z,59.32
2018-12-25T20:33:59.821Z,59.31
2018-12-25T20:36:58.791Z,59.41
2018-12-25T20:40:04.552Z,59.77
2018-12-25T20:43:04.145Z,59.76
2018-12-25T20:46:12.493Z,59.68
2018-12-25T20:49:15.389Z,60.03
2018-12-25T20:52:04.098Z,60.21
2018-12-25T20:55:01.813Z,60.19
2018-12-25T20:58:08.495Z,60.41
2018-12-25T21:01:06.711Z,60.60
2018-12-25T21:04:28.226Z,60.63
2018-12-25T21:07:39.101Z,60.88
2018-12-25T21:11:14.645Z,60.67
2018-12-25T21:14:20.272Z,60.76
2018-12-25T21:17:32.472Z,60.81
2018-12-25T21:20:33.945Z,61.09
2018-12-25T21:23:39.517Z,61.24
2018-12-25T21:26:44.966Z,61.06
2018-12-25T21:29:14.968Z,61.23
2018-12-25T21:31:44.899Z,61.22
2018-12-25T21:34:14.603Z,61.44
2018-12-25T21:36:49.595Z,61.42
2018-12-25T21:39:22.312Z,61.49
2018-12-25T21:41:52.216Z,60.97
2018-12-25T21:44:21.772Z,61.03
2018-12-25T21:46:51.435Z,61.17
2018-12-25T21:49:21.006Z,61.26
2018-12-25T21:51:51.075Z,61.33
2018-12-25T21:54:21.016Z,60.88
2018-12-25T21:56:50.922Z,60.88
2018-12-25T21:59:20.730Z,60.90
2018-12-25T22:01:50.592Z,60.80
2018-12-25T22:04:20.852Z,61.05
2018-12-25T22:06:50.676Z,60.95
2018-12-25T22:09:20.473Z,60.98
2018-12-25T22:11:49.993Z,61.01
2018-12-25T22:14:19.551Z,61.06
2018-12-25T22:16:49.043Z,60.96
2018-12-25T22:19:18.558Z,61.05
2018-12-25T22:21:48.118Z,61.17
2018-12-25T22:24:18.068Z,61.26
2018-12-25T22:26:47.606Z,61.24
2018-12-25T22:29:17.134Z,61.25
2018-12-25T22:31:46.625Z,61.40
2018-12-25T22:34:16.703Z,61.25
2018-12-25T22:36:46.502Z,61.56
2018-12-25T22:39:16.240Z,61.23
2018-12-25T22:41:45.758Z,60.99
2018-12-25T22:44:15.817Z,61.43
2018-12-25T22:46:45.583Z,61.42
2018-12-25T22:49:15.663Z,61.62
2018-12-25T22:51:45.913Z,61.25
2018-12-25T22:54:15.366Z,61.16
2018-12-25T22:56:45.383Z,61.29
2018-12-25T22:59:14.904Z,61.44
2018-12-25T23:01:44.651Z,61.73
2018-12-25T23:04:14.454Z,61.98
2018-12-25T23:06:43.967Z,61.93
2018-12-25T23:09:13.749Z,61.99
2018-12-25T23:11:44.228Z,61.92
2018-12-25T23:14:14.073Z,62.11
2018-12-25T23:16:43.747Z,62.29
2018-12-25T23:19:13.992Z,62.39
2018-12-25T23:21:44.327Z,62.15
2018-12-25T23:24:15.354Z,62.22
2018-12-25T23:26:45.349Z,62.24
2018-12-25T23:29:14.862Z,62.13
2018-12-25T23:31:44.520Z,62.52
2018-12-25T23:34:14.143Z,62.19
2018-12-25T23:36:43.809Z,62.05
2018-12-25T23:39:14.139Z,62.37
2018-12-25T23:41:43.849Z,61.94
2018-12-25T23:44:13.933Z,62.12
2018-12-25T23:46:43.928Z,62.04
2018-12-25T23:49:14.192Z,61.80
2018-12-25T23:51:44.641Z,61.89
2018-12-25T23:54:14.572Z,62.06
2018-12-25T23:56:44.044Z,62.14
2018-12-25T23:59:14.312Z,62.16
